createdAt,value
2018-07-17T00:01:52.127Z,100775.43
2018-07-17T00:06:44.683Z,100778.02
2018-07-17T00:11:37.359Z,100777.16
2018-07-17T00:16:29.942Z,100774.21
2018-07-17T00:21:22.545Z,100762.81
2018-07-17T00:26:15.105Z,100765.86
2018-07-17T00:31:07.694Z,100770.58
2018-07-17T00:36:00.682Z,100762.65
2018-07-17T00:40:53.367Z,100764.33
2018-07-17T00:45:45.964Z,100764.89
2018-07-17T00:50:38.570Z,100773.31
2018-07-17T00:55:31.156Z,100774.05
2018-07-17T01:00:56.428Z,100774.91
2018-07-17T01:10:59.161Z,100772.76
2018-07-17T01:15:51.835Z,100771.73
2018-07-17T01:20:44.452Z,100767.23
2018-07-17T01:25:36.981Z,100760.88
2018-07-17T01:30:29.482Z,100764.74
2018-07-17T01:35:22.175Z,100763.11
2018-07-17T01:40:14.745Z,100763.97
2018-07-17T01:45:07.370Z,100761.74
2018-07-17T01:49:59.965Z,100765.34
2018-07-17T01:54:52.561Z,100761.27
2018-07-17T01:59:45.173Z,100762.91
2018-07-17T02:04:37.848Z,100757.42
2018-07-17T02:09:30.644Z,100767.62
2018-07-17T02:14:23.260Z,100758.44
2018-07-17T02:19:15.811Z,100749.56
2018-07-17T02:24:08.390Z,100751.27
2018-07-17T02:29:00.918Z,100746.25
2018-07-17T02:33:53.605Z,100750.78
2018-07-17T02:38:46.186Z,100744.53
2018-07-17T02:43:38.888Z,100740.50
2018-07-17T02:48:31.429Z,100742.75
2018-07-17T02:53:23.969Z,100743.86
2018-07-17T02:58:16.568Z,100747.72
2018-07-17T03:03:09.208Z,100750.50
2018-07-17T03:08:01.889Z,100751.02
2018-07-17T03:12:54.485Z,100751.02
2018-07-17T03:17:47.032Z,100757.83
2018-07-17T03:22:39.795Z,100758.75
2018-07-17T03:27:32.358Z,100766.97
2018-07-17T03:32:24.915Z,100761.79
2018-07-17T03:37:17.445Z,100765.34
2018-07-17T03:42:10.022Z,100760.13
2018-07-17T03:47:02.625Z,100772.41
2018-07-17T03:51:55.248Z,100763.05
2018-07-17T03:56:47.838Z,100758.08
2018-07-17T04:01:40.496Z,100762.94
2018-07-17T04:06:33.102Z,100767.30
2018-07-17T04:11:25.792Z,100763.45
2018-07-17T04:16:18.346Z,100761.78
2018-07-17T04:21:11.111Z,100771.38
2018-07-17T04:26:03.668Z,100772.70
2018-07-17T04:30:56.308Z,100768.34
2018-07-17T04:35:48.938Z,100774.11
2018-07-17T04:40:41.439Z,100778.19
2018-07-17T04:45:34.035Z,100783.59
2018-07-17T04:50:26.822Z,100784.10
2018-07-17T04:55:19.361Z,100787.10
2018-07-17T05:00:12.048Z,100783.50
2018-07-17T05:05:05.060Z,100776.55
2018-07-17T05:09:57.842Z,100777.88
2018-07-17T05:14:50.512Z,100778.09
2018-07-17T05:19:43.116Z,100783.31
2018-07-17T05:24:35.660Z,100788.20
2018-07-17T05:29:28.258Z,100785.13
2018-07-17T05:34:20.871Z,100779.86
2018-07-17T05:39:13.398Z,100774.08
2018-07-17T05:44:06.027Z,100771.84
2018-07-17T05:48:58.624Z,100779.22
2018-07-17T05:53:51.305Z,100781.33
2018-07-17T05:58:43.897Z,100785.39
2018-07-17T06:03:36.522Z,100789.47
2018-07-17T06:08:29.161Z,100792.86
2018-07-17T06:13:21.791Z,100787.84
2018-07-17T06:18:14.339Z,100786.61
2018-07-17T06:23:06.982Z,100789.26
2018-07-17T06:27:59.672Z,100795.64
2018-07-17T06:32:52.220Z,100803.17
2018-07-17T06:37:44.763Z,100806.81
2018-07-17T06:42:37.343Z,100802.47
2018-07-17T06:47:29.960Z,100802.40
2018-07-17T06:52:22.522Z,100804.59
2018-07-17T06:57:15.191Z,100800.29
2018-07-17T07:07:32.436Z,100795.65
2018-07-17T07:12:25.099Z,100788.77
2018-07-17T07:17:17.646Z,100789.02
2018-07-17T07:22:10.302Z,100781.47
2018-07-17T07:27:02.999Z,100787.98
2018-07-17T07:31:55.513Z,100785.35
2018-07-17T07:36:48.228Z,100785.61
2018-07-17T07:41:40.896Z,100784.60
2018-07-17T07:46:33.813Z,100770.11
2018-07-17T07:51:26.494Z,100765.61
2018-07-17T07:56:19.070Z,100765.05
2018-07-17T08:01:11.688Z,100764.17
2018-07-17T08:06:04.321Z,100763.83
2018-07-17T08:10:56.995Z,100772.87
2018-07-17T08:15:49.582Z,100766.16
2018-07-17T08:20:42.221Z,100763.58
2018-07-17T08:25:34.839Z,100764.31
2018-07-17T08:30:27.447Z,100767.02
2018-07-17T08:35:20.028Z,100772.41
2018-07-17T08:40:12.809Z,100769.91
2018-07-17T08:45:05.431Z,100762.52
2018-07-17T08:49:58.053Z,100771.66
2018-07-17T08:54:50.670Z,100767.02
2018-07-17T08:59:43.306Z,100767.65
2018-07-17T09:04:35.845Z,100770.28
2018-07-17T09:09:28.394Z,100771.33
2018-07-17T09:14:21.199Z,100774.88
2018-07-17T09:19:13.717Z,100769.95
2018-07-17T09:24:06.927Z,100768.64
2018-07-17T09:28:59.523Z,100754.80
2018-07-17T09:33:52.182Z,100752.02
2018-07-17T09:38:44.833Z,100759.72
2018-07-17T09:43:37.671Z,100755.38
2018-07-17T09:48:30.329Z,100747.45
2018-07-17T09:53:22.869Z,100742.37
2018-07-17T09:58:15.431Z,100744.56
2018-07-17T10:03:08.031Z,100741.20
2018-07-17T10:08:00.770Z,100738.95
2018-07-17T10:12:53.658Z,100738.42
2018-07-17T10:17:46.295Z,100750.13
2018-07-17T10:22:39.256Z,100749.13
2018-07-17T10:27:31.818Z,100740.20
2018-07-17T10:32:24.329Z,100745.27
2018-07-17T10:37:17.150Z,100733.66
2018-07-17T10:42:09.911Z,100729.51
2018-07-17T10:47:02.507Z,100725.02
2018-07-17T10:51:55.260Z,100726.77
2018-07-17T10:56:47.843Z,100727.77
2018-07-17T11:01:40.612Z,100718.25
2018-07-17T11:06:33.340Z,100722.20
2018-07-17T11:11:25.878Z,100721.00
2018-07-17T11:16:18.441Z,100728.25
2018-07-17T11:21:10.966Z,100721.09
2018-07-17T11:26:03.533Z,100726.67
2018-07-17T11:30:56.238Z,100723.34
2018-07-17T11:35:48.785Z,100712.03
2018-07-17T11:40:41.297Z,100702.62
2018-07-17T11:45:33.894Z,100706.36
2018-07-17T11:50:26.530Z,100705.80
2018-07-17T11:55:19.244Z,100699.48
2018-07-17T12:00:11.949Z,100697.13
2018-07-17T12:05:04.734Z,100694.50
2018-07-17T12:09:57.352Z,100680.84
2018-07-17T12:14:50.061Z,100679.24
2018-07-17T12:19:42.779Z,100673.00
2018-07-17T12:24:35.352Z,100676.66
2018-07-17T12:29:28.326Z,100675.73
2018-07-17T12:34:21.189Z,100680.45
2018-07-17T12:39:13.812Z,100664.81
2018-07-17T12:44:06.446Z,100665.20
2018-07-17T12:48:59.307Z,100659.82
2018-07-17T12:53:51.926Z,100665.83
2018-07-17T12:58:44.468Z,100659.70
2018-07-17T13:03:37.079Z,100657.19
2018-07-17T13:08:30.202Z,100656.56
2018-07-17T13:13:22.795Z,100656.64
2018-07-17T13:18:15.354Z,100650.67
2018-07-17T13:23:07.893Z,100647.75
2018-07-17T13:28:01.209Z,100645.76
2018-07-17T13:32:53.769Z,100643.42
2018-07-17T13:37:46.408Z,100632.66
2018-07-17T13:42:38.984Z,100628.13
2018-07-17T13:47:31.491Z,100632.52
2018-07-17T13:52:24.033Z,100622.92
2018-07-17T13:57:16.629Z,100626.96
2018-07-17T14:02:09.441Z,100626.01
2018-07-17T14:07:02.097Z,100620.42
2018-07-17T14:11:54.641Z,100636.00
2018-07-17T14:16:47.288Z,100627.50
2018-07-17T14:21:39.884Z,100634.13
2018-07-17T14:26:32.515Z,100616.22
2018-07-17T14:31:25.190Z,100625.10
2018-07-17T14:36:17.843Z,100624.47
2018-07-17T14:41:10.403Z,100627.00
2018-07-17T14:46:02.914Z,100624.23
2018-07-17T14:50:55.532Z,100625.50
2018-07-17T14:55:48.221Z,100614.08
2018-07-17T15:00:40.924Z,100616.89
2018-07-17T15:05:33.641Z,100613.50
2018-07-17T15:10:26.215Z,100613.33
2018-07-17T15:15:19.230Z,100617.09
2018-07-17T15:20:12.123Z,100614.34
2018-07-17T15:25:05.493Z,100617.77
2018-07-17T15:29:58.087Z,100622.58
2018-07-17T15:34:50.704Z,100616.47
2018-07-17T15:39:43.340Z,100620.91
2018-07-17T15:44:35.939Z,100617.88
2018-07-17T15:49:28.540Z,100622.72
2018-07-17T15:54:21.106Z,100626.45
2018-07-17T15:59:13.799Z,100632.70
2018-07-17T16:04:06.755Z,100639.85
2018-07-17T16:08:59.564Z,100635.48
2018-07-17T16:13:52.378Z,100656.73
2018-07-17T16:18:44.801Z,100657.73
2018-07-17T16:23:37.345Z,100659.63
2018-07-17T16:28:29.901Z,100663.03
2018-07-17T16:33:22.491Z,100676.08
2018-07-17T16:38:15.144Z,100672.38
2018-07-17T16:43:07.720Z,100683.17
2018-07-17T16:48:00.322Z,100686.96
2018-07-17T16:52:52.937Z,100683.54
2018-07-17T16:57:45.674Z,100686.17
2018-07-17T17:02:38.256Z,100682.20
2018-07-17T17:07:30.899Z,100687.84
2018-07-17T17:12:23.567Z,100681.76
2018-07-17T17:17:16.251Z,100680.27
2018-07-17T17:22:08.834Z,100686.76
2018-07-17T17:27:01.545Z,100684.55
2018-07-17T17:31:54.282Z,100685.01
2018-07-17T17:36:46.960Z,100680.72
2018-07-17T17:41:39.522Z,100689.47
2018-07-17T17:46:32.139Z,100691.95
2018-07-17T17:51:24.960Z,100688.39
2018-07-17T17:56:17.504Z,100681.29
2018-07-17T18:01:10.024Z,100692.69
2018-07-17T18:06:02.626Z,100692.74
2018-07-17T18:10:55.127Z,100692.31
2018-07-17T18:15:47.709Z,100700.41
2018-07-17T18:20:40.298Z,100703.37
2018-07-17T18:25:32.934Z,100701.34
2018-07-17T18:30:25.715Z,100701.61
2018-07-17T18:35:18.302Z,100700.61
2018-07-17T18:40:11.162Z,100709.96
2018-07-17T18:45:03.795Z,100711.00
2018-07-17T18:50:12.310Z,100707.69
2018-07-17T18:54:49.177Z,100710.11
2018-07-17T18:59:41.857Z,100710.45
2018-07-17T19:04:34.342Z,100716.23
2018-07-17T19:09:26.923Z,100713.59
2018-07-17T19:14:19.634Z,100716.48
2018-07-17T19:19:12.379Z,100716.73
2018-07-17T19:24:05.044Z,100711.19
2018-07-17T19:28:57.686Z,100720.45
2018-07-17T19:33:50.316Z,100718.59
2018-07-17T19:38:42.858Z,100721.48
2018-07-17T19:43:35.480Z,100727.80
2018-07-17T19:48:28.069Z,100731.62
2018-07-17T19:53:20.651Z,100728.95
2018-07-17T19:58:13.207Z,100729.30
2018-07-17T20:03:05.775Z,100735.17
2018-07-17T20:07:58.447Z,100732.76
2018-07-17T20:12:51.088Z,100738.50
2018-07-17T20:17:43.654Z,100743.70
2018-07-17T20:22:36.240Z,100740.81
2018-07-17T20:27:28.854Z,100743.30
2018-07-17T20:32:21.402Z,100742.02
2018-07-17T20:37:13.981Z,100740.88
2018-07-17T20:42:06.489Z,100744.28
2018-07-17T20:46:59.015Z,100748.87
2018-07-17T20:51:51.552Z,100744.91
2018-07-17T20:56:44.095Z,100745.67
2018-07-17T21:01:36.617Z,100742.28
2018-07-17T21:06:29.063Z,100746.40
2018-07-17T21:11:21.577Z,100747.77
2018-07-17T21:16:14.150Z,100747.16
2018-07-17T21:21:06.638Z,100747.94
2018-07-17T21:25:59.132Z,100743.53
2018-07-17T21:30:51.717Z,100740.14
2018-07-17T21:35:44.322Z,100736.67
2018-07-17T21:40:36.821Z,100744.26
2018-07-17T21:45:29.375Z,100744.53
2018-07-17T21:50:21.943Z,100739.79
2018-07-17T21:55:14.607Z,100744.34
2018-07-17T22:00:08.920Z,100747.44
2018-07-17T22:05:01.442Z,100751.94
2018-07-17T22:09:54.020Z,100756.58
2018-07-17T22:14:46.620Z,100759.59
2018-07-17T22:19:39.157Z,100760.58
2018-07-17T22:24:31.742Z,100759.08
2018-07-17T22:29:24.300Z,100765.16
2018-07-17T22:34:16.922Z,100767.28
2018-07-17T22:39:09.959Z,100771.29
2018-07-17T22:44:02.647Z,100767.73
2018-07-17T22:48:55.258Z,100772.95
2018-07-17T22:53:47.843Z,100769.95
2018-07-17T22:58:40.385Z,100767.14
2018-07-17T23:03:32.905Z,100763.25
2018-07-17T23:08:25.410Z,100769.77
2018-07-17T23:13:17.958Z,100772.69
2018-07-17T23:18:10.528Z,100771.79
2018-07-17T23:23:03.091Z,100767.36
2018-07-17T23:27:56.388Z,100763.86
2018-07-17T23:32:49.859Z,100762.89
2018-07-17T23:37:42.370Z,100761.77
2018-07-17T23:42:34.962Z,100754.72
2018-07-17T23:47:27.503Z,100760.41
2018-07-17T23:52:20.100Z,100759.35
2018-07-17T23:57:12.710Z,100756.19
